createdAt,value
2023-03-10T00:01:16.708Z,8.65
2023-03-10T00:03:44.826Z,8.64
2023-03-10T00:06:13.929Z,8.68
2023-03-10T00:08:41.596Z,8.68
2023-03-10T00:11:08.522Z,8.74
2023-03-10T00:13:35.268Z,8.76
2023-03-10T00:16:02.368Z,8.76
2023-03-10T00:18:29.265Z,8.76
2023-03-10T00:20:55.909Z,8.76
2023-03-10T00:23:22.948Z,8.77
2023-03-10T00:25:57.279Z,8.74
2023-03-10T00:28:25.220Z,8.74
2023-03-10T00:31:07.076Z,8.74
2023-03-10T00:33:34.695Z,8.73
2023-03-10T00:36:07.770Z,8.70
2023-03-10T00:38:36.147Z,8.68
2023-03-10T00:41:06.077Z,8.66
2023-03-10T00:43:33.932Z,8.62
2023-03-10T00:46:00.721Z,8.57
2023-03-10T00:48:28.509Z,8.51
2023-03-10T00:50:56.269Z,8.49
2023-03-10T00:53:23.464Z,8.45
2023-03-10T00:56:11.939Z,8.42
2023-03-10T00:58:38.662Z,8.39
2023-03-10T01:01:18.138Z,8.35
2023-03-10T01:03:45.963Z,8.31
2023-03-10T01:06:13.224Z,8.18
2023-03-10T01:08:40.157Z,8.06
2023-03-10T01:11:06.909Z,7.94
2023-03-10T01:13:34.250Z,7.85
2023-03-10T01:16:01.383Z,7.81
2023-03-10T01:18:28.440Z,7.72
2023-03-10T01:20:55.106Z,7.65
2023-03-10T01:23:24.298Z,7.59
2023-03-10T01:25:51.836Z,7.53
2023-03-10T01:28:20.047Z,7.50
2023-03-10T01:30:48.304Z,7.40
2023-03-10T01:33:16.004Z,7.31
2023-03-10T01:35:43.699Z,7.27
2023-03-10T01:38:11.390Z,7.25
2023-03-10T01:40:38.975Z,7.19
2023-03-10T01:43:19.320Z,7.13
2023-03-10T01:45:45.940Z,7.03
2023-03-10T01:48:15.044Z,6.93
2023-03-10T01:50:44.644Z,6.89
2023-03-10T01:53:13.945Z,6.90
2023-03-10T01:55:46.018Z,6.90
2023-03-10T01:58:16.143Z,6.89
2023-03-10T02:00:43.531Z,6.87
2023-03-10T02:03:16.980Z,6.84
2023-03-10T02:05:56.730Z,6.84
2023-03-10T02:08:26.549Z,6.82
2023-03-10T02:10:54.111Z,6.77
2023-03-10T02:13:21.781Z,6.76
2023-03-10T02:15:49.120Z,6.75
2023-03-10T02:18:19.547Z,6.75
2023-03-10T02:21:20.593Z,6.75
2023-03-10T02:24:08.424Z,6.72
2023-03-10T02:26:41.376Z,6.70
2023-03-10T02:29:13.279Z,6.70
2023-03-10T02:31:41.421Z,6.71
2023-03-10T02:34:08.598Z,6.71
2023-03-10T02:36:36.474Z,6.69
2023-03-10T02:39:03.898Z,6.68
2023-03-10T02:41:36.528Z,6.63
2023-03-10T02:44:11.440Z,6.62
2023-03-10T02:46:38.686Z,6.62
2023-03-10T02:49:09.981Z,6.63
2023-03-10T02:51:43.534Z,6.61
2023-03-10T02:54:14.267Z,6.56
2023-03-10T02:56:42.555Z,6.55
2023-03-10T02:59:11.017Z,6.56
2023-03-10T03:01:41.817Z,6.47
2023-03-10T03:04:08.894Z,6.43
2023-03-10T03:06:36.056Z,6.39
2023-03-10T03:09:02.926Z,6.41
2023-03-10T03:11:30.152Z,6.43
2023-03-10T03:13:57.500Z,6.42
2023-03-10T03:16:24.579Z,6.37
2023-03-10T03:18:54.463Z,6.34
2023-03-10T03:21:21.608Z,6.36
2023-03-10T03:23:48.788Z,6.42
2023-03-10T03:26:22.993Z,6.45
2023-03-10T03:28:51.781Z,6.47
2023-03-10T03:31:23.621Z,6.48
2023-03-10T03:33:53.314Z,6.44
2023-03-10T03:36:20.916Z,6.40
2023-03-10T03:38:47.646Z,6.38
2023-03-10T03:41:15.212Z,6.36
2023-03-10T03:43:42.765Z,6.37
2023-03-10T03:46:09.583Z,6.35
2023-03-10T03:48:36.353Z,6.31
2023-03-10T03:51:03.537Z,6.31
2023-03-10T03:53:35.481Z,6.33
2023-03-10T03:56:02.821Z,6.39
2023-03-10T03:58:31.396Z,6.46
2023-03-10T04:00:57.978Z,6.48
2023-03-10T04:03:25.372Z,6.47
2023-03-10T04:05:52.649Z,6.54
2023-03-10T04:08:19.904Z,6.61
2023-03-10T04:10:54.686Z,6.64
2023-03-10T04:13:23.802Z,6.64
2023-03-10T04:15:57.789Z,6.61
2023-03-10T04:18:25.603Z,6.56
2023-03-10T04:20:52.495Z,6.52
2023-03-10T04:23:19.926Z,6.49
2023-03-10T04:25:47.052Z,6.44
2023-03-10T04:28:14.308Z,6.40
2023-03-10T04:30:43.360Z,6.40
2023-03-10T04:33:11.676Z,6.41
2023-03-10T04:35:41.955Z,6.41
2023-03-10T04:38:09.350Z,6.40
2023-03-10T04:40:36.199Z,6.39
2023-03-10T04:43:03.270Z,6.40
2023-03-10T04:45:31.423Z,6.41
2023-03-10T04:47:58.565Z,6.41
2023-03-10T04:50:26.013Z,6.43
2023-03-10T04:52:53.076Z,6.44
2023-03-10T04:55:23.305Z,6.44
2023-03-10T04:57:50.659Z,6.46
2023-03-10T05:00:19.453Z,6.47
2023-03-10T05:02:46.524Z,6.48
2023-03-10T05:05:13.542Z,6.45
2023-03-10T05:07:42.632Z,6.44
2023-03-10T05:10:10.914Z,6.42
2023-03-10T05:12:39.429Z,6.42
2023-03-10T05:15:08.074Z,6.43
2023-03-10T05:17:34.718Z,6.46
2023-03-10T05:20:01.784Z,6.49
2023-03-10T05:22:29.230Z,6.53
2023-03-10T05:24:56.161Z,6.57
2023-03-10T05:27:24.131Z,6.57
2023-03-10T05:29:51.292Z,6.56
2023-03-10T05:32:21.030Z,6.57
2023-03-10T05:34:48.247Z,6.59
2023-03-10T05:37:15.292Z,6.59
2023-03-10T05:39:43.461Z,6.58
2023-03-10T05:42:12.251Z,6.66
2023-03-10T05:44:39.613Z,6.72
2023-03-10T05:47:07.436Z,6.85
2023-03-10T05:49:36.682Z,6.96
2023-03-10T05:52:04.450Z,7.12
2023-03-10T05:54:31.685Z,7.28
2023-03-10T05:56:58.455Z,7.39
2023-03-10T05:59:26.916Z,7.52
2023-03-10T06:01:53.799Z,7.65
2023-03-10T06:04:20.539Z,7.78
2023-03-10T06:06:47.304Z,7.85
2023-03-10T06:09:14.030Z,7.92
2023-03-10T06:11:40.752Z,8.01
2023-03-10T06:14:07.364Z,8.15
2023-03-10T06:16:34.022Z,8.27
2023-03-10T06:19:00.944Z,8.42
2023-03-10T06:21:28.837Z,8.57
2023-03-10T06:23:56.190Z,8.73
2023-03-10T06:26:23.796Z,8.88
2023-03-10T06:28:50.559Z,9.00
2023-03-10T06:31:20.995Z,9.10
2023-03-10T06:33:47.910Z,9.19
2023-03-10T06:36:16.263Z,9.28
2023-03-10T06:38:42.963Z,9.46
2023-03-10T06:41:09.499Z,9.69
2023-03-10T06:43:36.647Z,9.92
2023-03-10T06:46:08.796Z,10.15
2023-03-10T06:48:36.805Z,10.34
2023-03-10T06:51:08.144Z,10.64
2023-03-10T06:53:35.377Z,10.97
2023-03-10T06:56:06.061Z,11.25
2023-03-10T06:58:35.421Z,11.93
2023-03-10T07:01:03.157Z,12.74
2023-03-10T07:03:30.326Z,13.56
2023-03-10T07:05:58.818Z,14.66
2023-03-10T07:08:29.282Z,15.75
2023-03-10T07:10:56.600Z,16.50
2023-03-10T07:13:24.148Z,16.95
2023-03-10T07:15:51.430Z,17.35
2023-03-10T07:18:18.433Z,17.59
2023-03-10T07:20:47.497Z,17.96
2023-03-10T07:23:15.258Z,18.25
2023-03-10T07:25:42.048Z,18.45
2023-03-10T07:28:08.931Z,18.71
2023-03-10T07:30:37.223Z,18.93
2023-03-10T07:33:04.244Z,19.02
2023-03-10T07:35:30.798Z,18.94
2023-03-10T07:37:57.624Z,18.77
2023-03-10T07:40:24.537Z,18.79
2023-03-10T07:42:54.048Z,18.95
2023-03-10T07:45:22.317Z,19.35
2023-03-10T07:47:53.787Z,19.68
2023-03-10T07:50:21.765Z,19.86
2023-03-10T07:52:50.017Z,20.09
2023-03-10T07:55:17.913Z,20.22
2023-03-10T07:57:44.740Z,20.41
2023-03-10T08:00:12.490Z,20.48
2023-03-10T08:02:40.746Z,20.36
2023-03-10T08:05:10.125Z,20.02
2023-03-10T08:07:37.832Z,19.57
2023-03-10T08:10:05.337Z,19.10
2023-03-10T08:12:33.159Z,18.79
2023-03-10T08:14:59.978Z,18.47
2023-03-10T08:17:30.241Z,18.20
2023-03-10T08:19:58.006Z,17.97
2023-03-10T08:22:25.874Z,17.79
2023-03-10T08:24:53.410Z,17.80
2023-03-10T08:27:21.180Z,18.00
2023-03-10T08:29:47.826Z,18.20
2023-03-10T08:32:14.718Z,18.33
2023-03-10T08:34:42.621Z,18.43
2023-03-10T08:37:09.805Z,18.49
2023-03-10T08:39:36.838Z,18.62
2023-03-10T08:42:03.632Z,18.74
2023-03-10T08:44:30.238Z,18.95
2023-03-10T08:46:57.251Z,19.08
2023-03-10T08:49:23.946Z,19.21
2023-03-10T08:51:50.657Z,19.36
2023-03-10T08:54:20.183Z,19.66
2023-03-10T08:56:47.832Z,19.94
2023-03-10T08:59:15.157Z,20.23
2023-03-10T09:01:41.855Z,20.59
2023-03-10T09:04:10.039Z,21.17
2023-03-10T09:06:37.979Z,21.86
2023-03-10T09:09:06.445Z,22.58
2023-03-10T09:11:38.444Z,23.04
2023-03-10T09:14:08.402Z,23.88
2023-03-10T09:16:36.000Z,24.86
2023-03-10T09:19:03.397Z,25.84
2023-03-10T09:21:33.546Z,26.67
2023-03-10T09:24:01.540Z,27.64
2023-03-10T09:26:28.134Z,28.72
2023-03-10T09:28:57.010Z,29.51
2023-03-10T09:31:32.287Z,29.90
2023-03-10T09:33:58.949Z,29.52
2023-03-10T09:36:25.798Z,28.95
2023-03-10T09:38:52.470Z,28.68
2023-03-10T09:41:52.530Z,28.59
2023-03-10T09:44:25.668Z,29.00
2023-03-10T09:47:10.632Z,28.93
2023-03-10T09:49:39.445Z,29.03
2023-03-10T09:52:20.762Z,29.14
2023-03-10T09:55:16.561Z,29.48
2023-03-10T09:57:47.207Z,30.27
2023-03-10T10:00:23.816Z,30.62
2023-03-10T10:02:59.425Z,30.77
2023-03-10T10:05:32.405Z,30.61
2023-03-10T10:08:04.493Z,30.38
2023-03-10T10:10:36.332Z,30.04
2023-03-10T10:13:14.445Z,28.97
2023-03-10T10:15:45.858Z,27.96
2023-03-10T10:18:19.593Z,27.31
2023-03-10T10:20:48.140Z,27.03
2023-03-10T10:23:20.945Z,27.78
2023-03-10T10:25:50.287Z,27.97
2023-03-10T10:28:29.500Z,27.65
2023-03-10T10:31:11.147Z,27.36
2023-03-10T10:33:53.187Z,27.19
2023-03-10T10:36:19.972Z,26.62
2023-03-10T10:38:52.182Z,25.90
2023-03-10T10:41:30.783Z,24.86
2023-03-10T10:44:09.202Z,23.53
2023-03-10T10:46:35.891Z,21.97
2023-03-10T10:49:18.449Z,21.25
2023-03-10T10:51:58.961Z,20.44
2023-03-10T10:54:32.005Z,19.73
2023-03-10T10:57:01.034Z,19.37
2023-03-10T10:59:32.998Z,19.19
2023-03-10T11:02:22.104Z,19.23
2023-03-10T11:04:49.396Z,19.16
2023-03-10T11:07:18.933Z,20.45
2023-03-10T11:09:47.359Z,22.19
2023-03-10T11:12:25.374Z,22.38
2023-03-10T11:15:06.389Z,23.66
2023-03-10T11:17:39.625Z,24.03
2023-03-10T11:20:30.253Z,24.17
2023-03-10T11:23:05.745Z,23.64
2023-03-10T11:26:13.793Z,22.55
2023-03-10T11:28:56.764Z,22.65
2023-03-10T11:31:54.658Z,22.48
2023-03-10T11:34:30.508Z,22.43
2023-03-10T11:36:57.476Z,22.21
2023-03-10T11:39:36.693Z,22.12
2023-03-10T11:42:23.253Z,22.15
2023-03-10T11:45:20.217Z,23.25
2023-03-10T11:48:08.504Z,23.10
2023-03-10T11:50:59.239Z,22.46
2023-03-10T11:53:44.810Z,21.99
2023-03-10T11:56:16.803Z,21.17
2023-03-10T11:59:13.560Z,20.47
2023-03-10T12:01:55.369Z,19.29
2023-03-10T12:04:40.294Z,18.39
2023-03-10T12:07:10.187Z,17.68
2023-03-10T12:09:45.961Z,17.31
2023-03-10T12:12:16.808Z,16.98
2023-03-10T12:14:45.301Z,16.93
2023-03-10T12:17:14.525Z,16.99
2023-03-10T12:20:15.962Z,16.71
2023-03-10T12:22:50.874Z,16.76
2023-03-10T12:25:29.455Z,16.98
2023-03-10T12:28:17.754Z,17.27
2023-03-10T12:31:03.713Z,17.43
2023-03-10T12:33:30.445Z,17.45
2023-03-10T12:35:57.032Z,17.30
2023-03-10T12:38:42.835Z,17.16
2023-03-10T12:41:10.154Z,17.00
2023-03-10T12:43:36.812Z,16.88
2023-03-10T12:46:07.422Z,16.82
2023-03-10T12:48:38.529Z,16.67
2023-03-10T12:51:12.428Z,16.62
2023-03-10T12:53:58.146Z,16.61
2023-03-10T12:56:41.568Z,16.39
2023-03-10T12:59:39.530Z,16.27
2023-03-10T13:02:33.869Z,16.21
2023-03-10T13:05:05.925Z,16.22
2023-03-10T13:07:35.135Z,16.14
2023-03-10T13:10:02.942Z,16.13
2023-03-10T13:12:37.074Z,16.29
2023-03-10T13:15:07.703Z,16.27
2023-03-10T13:17:34.351Z,16.26
2023-03-10T13:20:18.276Z,16.31
2023-03-10T13:22:55.595Z,16.37
2023-03-10T13:25:22.870Z,16.27
2023-03-10T13:27:49.797Z,16.22
2023-03-10T13:30:22.419Z,16.22
2023-03-10T13:33:01.740Z,16.11
2023-03-10T13:35:37.316Z,16.00
2023-03-10T13:38:11.762Z,15.96
2023-03-10T13:40:44.577Z,15.96
2023-03-10T13:43:33.544Z,15.87
2023-03-10T13:46:02.626Z,15.75
2023-03-10T13:48:31.782Z,15.72
2023-03-10T13:51:16.692Z,15.61
2023-03-10T13:53:44.783Z,15.51
2023-03-10T13:56:18.853Z,15.47
2023-03-10T13:58:46.868Z,15.42
2023-03-10T14:01:24.155Z,15.43
2023-03-10T14:03:56.056Z,15.49
2023-03-10T14:06:23.116Z,15.52
2023-03-10T14:08:50.711Z,15.61
2023-03-10T14:11:21.683Z,15.63
2023-03-10T14:13:48.727Z,15.70
2023-03-10T14:16:15.275Z,15.78
2023-03-10T14:18:43.104Z,15.88
2023-03-10T14:22:02.941Z,16.01
2023-03-10T14:24:29.557Z,16.25
2023-03-10T14:27:00.258Z,16.37
2023-03-10T14:29:26.972Z,16.46
2023-03-10T14:31:53.723Z,16.48
2023-03-10T14:34:22.831Z,16.52
2023-03-10T14:36:49.455Z,16.37
2023-03-10T14:39:16.136Z,16.24
2023-03-10T14:41:42.727Z,16.13
2023-03-10T14:44:10.026Z,16.03
2023-03-10T14:46:36.913Z,15.92
2023-03-10T14:49:07.284Z,15.84
2023-03-10T14:51:36.279Z,15.81
2023-03-10T14:54:03.514Z,15.73
2023-03-10T14:56:32.062Z,15.71
2023-03-10T14:59:01.546Z,15.74
2023-03-10T15:01:28.893Z,15.74
2023-03-10T15:03:55.752Z,15.70
2023-03-10T15:06:22.569Z,15.62
2023-03-10T15:08:49.141Z,15.57
2023-03-10T15:11:24.036Z,15.57
2023-03-10T15:13:57.797Z,15.47
2023-03-10T15:16:24.645Z,15.39
2023-03-10T15:18:52.547Z,15.34
2023-03-10T15:21:19.769Z,15.31
2023-03-10T15:23:46.672Z,15.30
2023-03-10T15:26:13.457Z,15.24
2023-03-10T15:28:40.192Z,15.20
2023-03-10T15:31:06.983Z,15.12
2023-03-10T15:33:33.614Z,15.13
2023-03-10T15:36:00.329Z,15.14
2023-03-10T15:38:27.260Z,15.14
2023-03-10T15:40:53.932Z,15.14
2023-03-10T15:43:20.539Z,15.14
2023-03-10T15:45:48.737Z,15.09
2023-03-10T15:48:16.506Z,15.04
2023-03-10T15:50:46.403Z,15.02
2023-03-10T15:53:13.662Z,14.99
2023-03-10T15:55:41.866Z,14.96
2023-03-10T15:58:10.395Z,14.90
2023-03-10T16:00:37.012Z,14.85
2023-03-10T16:03:03.611Z,14.79
2023-03-10T16:05:30.262Z,14.69
2023-03-10T16:07:56.967Z,14.62
2023-03-10T16:10:23.603Z,14.56
2023-03-10T16:12:50.938Z,14.50
2023-03-10T16:15:18.473Z,14.46
2023-03-10T16:17:45.424Z,14.39
2023-03-10T16:20:13.224Z,14.31
2023-03-10T16:22:42.329Z,14.23
2023-03-10T16:25:15.129Z,14.19
2023-03-10T16:27:43.882Z,14.15
2023-03-10T16:30:12.637Z,14.03
2023-03-10T16:32:39.456Z,13.96
2023-03-10T16:35:07.370Z,13.92
2023-03-10T16:37:34.410Z,13.88
2023-03-10T16:40:01.471Z,13.83
2023-03-10T16:42:28.346Z,13.80
2023-03-10T16:44:56.251Z,13.67
2023-03-10T16:47:23.009Z,13.50
2023-03-10T16:49:49.804Z,13.33
2023-03-10T16:52:16.616Z,13.18
2023-03-10T16:54:45.116Z,13.14
2023-03-10T16:57:13.461Z,13.14
2023-03-10T16:59:41.854Z,13.17
2023-03-10T17:02:18.134Z,13.19
2023-03-10T17:04:45.252Z,13.22
2023-03-10T17:07:11.959Z,13.17
2023-03-10T17:09:38.707Z,13.09
2023-03-10T17:12:06.448Z,13.03
2023-03-10T17:14:33.244Z,12.96
2023-03-10T17:17:00.854Z,12.90
2023-03-10T17:19:30.506Z,12.86
2023-03-10T17:21:58.427Z,12.89
2023-03-10T17:24:25.969Z,12.91
2023-03-10T17:26:53.026Z,12.92
2023-03-10T17:29:19.744Z,12.88
2023-03-10T17:31:50.921Z,12.81
2023-03-10T17:34:19.372Z,12.78
2023-03-10T17:36:49.084Z,12.75
2023-03-10T17:39:18.951Z,12.69
2023-03-10T17:41:47.178Z,12.64
2023-03-10T17:44:14.592Z,12.60
2023-03-10T17:46:41.521Z,12.53
2023-03-10T17:49:11.681Z,12.48
2023-03-10T17:51:42.881Z,12.41
2023-03-10T17:54:13.425Z,12.35
2023-03-10T17:56:40.480Z,12.33
2023-03-10T17:59:10.156Z,12.29
2023-03-10T18:01:36.760Z,12.27
2023-03-10T18:04:03.496Z,12.23
2023-03-10T18:06:33.936Z,12.24
2023-03-10T18:09:04.068Z,12.26
2023-03-10T18:11:32.235Z,12.29
2023-03-10T18:14:02.397Z,12.29
2023-03-10T18:16:34.550Z,12.29
2023-03-10T18:19:01.278Z,12.30
2023-03-10T18:21:28.076Z,12.29
2023-03-10T18:23:55.198Z,12.26
2023-03-10T18:26:28.973Z,12.25
2023-03-10T18:28:56.474Z,12.19
2023-03-10T18:31:26.968Z,12.12
2023-03-10T18:33:54.487Z,12.07
2023-03-10T18:36:23.485Z,12.06
2023-03-10T18:38:51.172Z,12.05
2023-03-10T18:41:19.677Z,12.05
2023-03-10T18:43:46.460Z,12.05
2023-03-10T18:46:13.658Z,12.08
2023-03-10T18:48:41.161Z,12.13
2023-03-10T18:51:07.900Z,12.15
2023-03-10T18:53:34.496Z,12.19
2023-03-10T18:56:01.137Z,12.19
2023-03-10T18:58:29.232Z,12.22
2023-03-10T19:00:56.221Z,12.21
2023-03-10T19:03:22.842Z,12.21
2023-03-10T19:05:53.692Z,12.18
2023-03-10T19:08:26.394Z,12.18
2023-03-10T19:10:55.430Z,12.18
2023-03-10T19:13:23.240Z,12.16
2023-03-10T19:15:50.385Z,12.10
2023-03-10T19:18:18.052Z,12.07
2023-03-10T19:20:45.955Z,12.06
2023-03-10T19:23:14.096Z,12.05
2023-03-10T19:25:41.023Z,12.08
2023-03-10T19:28:07.881Z,12.12
2023-03-10T19:30:35.323Z,12.11
2023-03-10T19:33:02.364Z,12.13
2023-03-10T19:35:29.036Z,12.16
2023-03-10T19:37:59.935Z,12.17
2023-03-10T19:40:26.785Z,12.16
2023-03-10T19:42:53.622Z,12.17
2023-03-10T19:45:20.270Z,12.18
2023-03-10T19:47:46.956Z,12.18
2023-03-10T19:50:16.614Z,12.19
2023-03-10T19:52:48.600Z,12.18
2023-03-10T19:55:18.961Z,12.17
2023-03-10T19:57:47.996Z,12.15
2023-03-10T20:00:16.775Z,12.10
2023-03-10T20:02:44.351Z,12.07
2023-03-10T20:05:14.225Z,12.01
2023-03-10T20:07:43.666Z,11.96
2023-03-10T20:10:10.783Z,11.94
2023-03-10T20:12:37.522Z,11.93
2023-03-10T20:15:04.972Z,11.96
2023-03-10T20:17:31.660Z,11.97
2023-03-10T20:19:58.470Z,11.98
2023-03-10T20:22:25.010Z,12.02
2023-03-10T20:24:52.241Z,12.05
2023-03-10T20:27:18.926Z,12.08
2023-03-10T20:29:45.654Z,12.12
2023-03-10T20:32:12.541Z,12.16
2023-03-10T20:34:40.688Z,12.21
2023-03-10T20:37:07.713Z,12.27
2023-03-10T20:39:34.378Z,12.33
2023-03-10T20:42:00.991Z,12.35
2023-03-10T20:44:27.725Z,12.37
2023-03-10T20:46:54.370Z,12.38
2023-03-10T20:49:23.443Z,12.40
2023-03-10T20:51:50.227Z,12.40
2023-03-10T20:54:17.728Z,12.40
2023-03-10T20:56:44.362Z,12.39
2023-03-10T20:59:10.947Z,12.38
2023-03-10T21:01:41.672Z,12.38
2023-03-10T21:04:08.816Z,12.36
2023-03-10T21:06:36.796Z,12.37
2023-03-10T21:09:05.201Z,12.35
2023-03-10T21:11:33.848Z,12.33
2023-03-10T21:14:00.702Z,12.32
2023-03-10T21:16:27.662Z,12.27
2023-03-10T21:18:54.406Z,12.17
2023-03-10T21:21:21.034Z,12.11
2023-03-10T21:23:47.873Z,12.11
2023-03-10T21:26:18.187Z,12.16
2023-03-10T21:28:45.800Z,12.19
2023-03-10T21:31:14.223Z,12.24
2023-03-10T21:33:41.112Z,12.28
2023-03-10T21:36:14.761Z,12.16
2023-03-10T21:38:41.953Z,12.15
2023-03-10T21:41:09.014Z,12.10
2023-03-10T21:43:35.728Z,12.12
2023-03-10T21:46:02.534Z,12.13
2023-03-10T21:48:29.374Z,12.14
2023-03-10T21:50:56.187Z,12.16
2023-03-10T21:53:25.901Z,12.10
2023-03-10T21:55:53.773Z,12.05
2023-03-10T21:58:22.759Z,12.01
2023-03-10T22:00:49.560Z,12.01
2023-03-10T22:03:21.550Z,12.01
2023-03-10T22:05:49.186Z,12.02
2023-03-10T22:08:15.966Z,12.03
2023-03-10T22:10:42.592Z,12.03
2023-03-10T22:13:09.223Z,12.05
2023-03-10T22:15:35.843Z,12.11
2023-03-10T22:18:03.058Z,12.16
2023-03-10T22:20:29.988Z,12.20
2023-03-10T22:22:57.118Z,12.23
2023-03-10T22:25:24.478Z,12.23
2023-03-10T22:27:53.706Z,12.18
2023-03-10T22:30:21.852Z,12.12
2023-03-10T22:32:48.960Z,12.09
2023-03-10T22:35:16.125Z,12.08
2023-03-10T22:37:43.293Z,12.02
2023-03-10T22:40:15.616Z,11.98
2023-03-10T22:42:43.477Z,11.98
2023-03-10T22:45:25.136Z,12.02
2023-03-10T22:47:54.267Z,11.96
2023-03-10T22:50:39.905Z,11.97
2023-03-10T22:53:11.613Z,11.99
2023-03-10T22:55:38.298Z,11.99
2023-03-10T22:58:06.485Z,12.00
2023-03-10T23:00:34.109Z,12.00
2023-03-10T23:03:01.697Z,11.95
2023-03-10T23:05:28.668Z,11.90
2023-03-10T23:07:56.323Z,11.83
2023-03-10T23:10:26.104Z,11.78
2023-03-10T23:12:54.585Z,11.77
2023-03-10T23:15:25.689Z,11.79
2023-03-10T23:17:53.880Z,11.81
2023-03-10T23:20:26.156Z,11.76
2023-03-10T23:22:54.886Z,11.70
2023-03-10T23:25:29.204Z,11.63
2023-03-10T23:27:56.698Z,11.54
2023-03-10T23:30:24.590Z,11.53
2023-03-10T23:32:52.271Z,11.50
2023-03-10T23:35:23.196Z,11.45
2023-03-10T23:37:49.897Z,11.40
2023-03-10T23:40:19.080Z,11.31
2023-03-10T23:42:46.797Z,11.23
2023-03-10T23:45:16.702Z,11.15
2023-03-10T23:47:44.140Z,11.07
2023-03-10T23:50:22.620Z,10.97
2023-03-10T23:52:50.341Z,10.81
2023-03-10T23:55:24.126Z,10.72
2023-03-10T23:57:50.855Z,10.60
